• Join FlightAware (Why Join?)
  • Login
  • US Flag 
08:48PM EDT


 

Airport Tracker/Info


-or-


 

Live Flight TrackerFlight Track Log ✈ CTL17 ✈ 27-Jun-2013 ✈ KYIP - KBKL

Flight Track Log - Related Links

Times and Time Zones

All times are in EDT time to prevent confusion due to time zone crossing. See the CTL17 flight status page for this flight to view local times or setup timezone preferences in your user account.

Time Position Orientation Groundspeed Altitude Reporting Facility
EDT Latitude Longitude Course Direction KTS MPH feet Rate Location/Type
06:07PM 42.2236 -83.5556 94° East 135 155 1,200  Level Cleveland Center
06:09PM 42.1841 -83.5257 151° Southeast  Level FlightAware Approximate
06:09PM 42.1608 -83.6478 151° Southeast 153 176 3,100  Level Cleveland Center
06:10PM 42.1322 -83.6997 233° Southwest 169 194 3,200  Climbing Cleveland Center
06:12PM 42.0978 -83.7456 225° Southwest 175 201 3,100 -60 Descending Cleveland Center
06:13PM 42.0291 -83.3687 94° East  Level FlightAware Approximate
06:13PM 42.0494 -83.7600 193° South 169 194 3,100  Level Cleveland Center
06:14PM 41.9989 -83.7769 194° South 165 190 3,000  Descending Cleveland Center
06:15PM 41.9528 -83.7858 188° South 163 188 3,100  Climbing Cleveland Center
06:16PM 41.9089 -83.7836 178° South 173 199 3,100 -60 Level Cleveland Center
06:17PM 41.8981 -83.7272 104° East 164 189 3,000 -60 Descending Cleveland Center
06:18PM 41.8894 -83.6628 100° East 164 189 3,000  Level Cleveland Center
06:19PM 41.8708 -83.5808 107° East 179 206 3,100  Climbing Cleveland Center
06:20PM 41.8600 -83.5133 102° East 177 204 3,100 -60 Level Cleveland Center
06:21PM 41.8553 -83.4492 96° East 182 209 3,000  Descending Cleveland Center
06:22PM 41.8669 -83.3994 72° East 176 203 3,100  Climbing Cleveland Center
06:23PM 41.8869 -83.3472 63° Northeast 172 198 3,000  Descending Cleveland Center
06:24PM 41.9117 -83.2786 64° Northeast 168 193 3,200 120 Climbing Cleveland Center
06:25PM 41.9297 -83.2181 68° East 178 205 3,300  Climbing Cleveland Center
06:26PM 41.9269 -83.1508 93° East 182 209 3,200 -120 Descending Cleveland Center
06:27PM 41.9181 -83.0864 100° East 178 205 3,100 -60 Descending Cleveland Center
06:28PM 41.8986 -83.0186 111° Southeast 169 194 3,100 -120 Level Cleveland Center
06:28PM 41.8889 -82.9819 110° East 171 197 2,900  Descending Cleveland Center
06:30PM 41.8656 -82.9003 111° Southeast 166 191 3,100 120 Climbing Cleveland Center
06:31PM 41.8581 -82.8581 103° East 168 193 3,200  Climbing Cleveland Center
06:32PM 41.8428 -82.7992 109° East 173 199 3,100  Descending Cleveland Center
06:33PM 41.8169 -82.7203 114° Southeast 173 199 3,200  Climbing Cleveland Center
06:34PM 41.8036 -82.6611 107° East 172 198 3,100 -60 Descending Cleveland Center
06:35PM 41.7858 -82.6078 114° Southeast 171 197 3,100  Level Cleveland Center
06:36PM 41.7658 -82.5542 117° Southeast 171 197 3,100  Level Cleveland Center
06:37PM 41.7500 -82.4953 110° East 170 196 3,100  Level Cleveland Center
06:38PM 41.7325 -82.4336 111° Southeast 169 194 3,100  Level Cleveland Center
06:39PM 41.7144 -82.3744 112° Southeast 169 194 3,100  Level Cleveland Center
06:40PM 41.7008 -82.3214 109° East 168 193 3,100  Level Cleveland Center
06:41PM 41.6892 -82.2597 104° East 168 193 3,100  Level Cleveland Center
06:42PM 41.6733 -82.1983 109° East 167 192 3,100 -60 Level Cleveland Center
06:43PM 41.6678 -82.1481 98° East 167 192 3,000 -300 Descending Cleveland Center
06:44PM 41.6542 -82.0811 105° East 180 207 2,600 -240 Descending Cleveland Center
06:44PM 41.6444 -82.0281 104° East 168 193 2,600  Level Cleveland Center
06:46PM 41.6325 -81.9694 105° East 163 188 2,600  Level Cleveland Center
06:47PM 41.6231 -81.9081 102° East 167 192 2,600 -360 Level Cleveland Center
06:48PM 41.5944 -81.8492 123° Southeast 189 217 1,900 -480 Descending Cleveland Center
06:49PM 41.5636 -81.7986 129° Southeast 164 189 1,700 -240 Descending Cleveland Center
06:50PM 41.5331 -81.7508 130° Southeast 161 185 1,400 -420 Descending Cleveland Center
06:51PM 41.5061 -81.7089 131° Southeast 132 152 900 -540 Descending Cleveland Center
06:53PM 41.5175 -81.6833 108° East  Level Estimated